Time;durP1;ratioP1;P1;durP2;ratioP2;P2;SDS_P1;SDS_P2;PMS_P1;PMS_P2;Temp;Humidity;BMP_temperature;BMP_pressure;BME280_temperature;BME280_humidity;BME280_pressure;Samples;Min_cycle;Max_cycle;Signal;HPM_P1;HPM_P2
2021/12/22 00:02:10;;;;;;;31.55;12.02;;;;;;;-0.44;100.00;102302.28;5037114;28;20490;-70
2021/12/22 00:04:43;;;;;;;29.50;11.65;;;;;;;-0.03;100.00;102326.66;5018746;28;20152;-70
2021/12/22 00:07:09;;;;;;;28.23;12.23;;;;;;;-0.25;100.00;102326.16;5036303;28;20100;-70
2021/12/22 00:09:37;;;;;;;29.30;11.82;;;;;;;-0.27;100.00;102331.41;5035406;28;20020;-71
2021/12/22 00:12:04;;;;;;;29.83;11.63;;;;;;;-0.28;100.00;102308.91;5018314;28;20087;-71
2021/12/22 00:14:29;;;;;;;28.98;11.98;;;;;;;-0.12;100.00;102311.25;5016992;28;20044;-71
2021/12/22 00:16:55;;;;;;;27.33;11.57;;;;;;;-0.38;100.00;102324.69;5017255;28;20136;-71
2021/12/22 00:19:20;;;;;;;33.03;12.82;;;;;;;-0.29;100.00;102316.75;5054987;28;20025;-70
2021/12/22 00:21:46;;;;;;;27.55;12.00;;;;;;;-0.59;100.00;102310.31;5036709;28;20415;-70
2021/12/22 00:24:11;;;;;;;35.30;12.52;;;;;;;-0.25;100.00;102321.84;5054276;28;20067;-71
2021/12/22 00:26:37;;;;;;;32.03;12.18;;;;;;;-0.15;100.00;102322.53;5054217;28;20439;-71
2021/12/22 00:29:04;;;;;;;30.33;12.10;;;;;;;-0.32;100.00;102315.06;5034326;28;20017;-71
2021/12/22 00:31:31;;;;;;;26.40;11.88;;;;;;;-0.16;100.00;102331.22;5037135;28;20459;-71
2021/12/22 00:33:57;;;;;;;28.05;12.40;;;;;;;-0.06;100.00;102335.38;5054921;28;20016;-71
2021/12/22 00:36:24;;;;;;;30.17;12.57;;;;;;;-0.46;100.00;102322.22;5055668;28;20021;-71
2021/12/22 00:38:52;;;;;;;28.38;11.80;;;;;;;-0.50;100.00;102316.22;5037174;28;20414;-71
2021/12/22 00:41:17;;;;;;;32.83;12.10;;;;;;;-0.34;100.00;102331.53;5037173;28;20029;-71
2021/12/22 00:43:43;;;;;;;30.27;12.63;;;;;;;-0.35;100.00;102330.66;5037088;28;20474;-71
2021/12/22 00:46:12;;;;;;;27.55;12.10;;;;;;;-0.36;100.00;102333.28;5055253;28;20459;-71
2021/12/22 00:48:38;;;;;;;30.42;12.45;;;;;;;-0.31;100.00;102316.75;5033514;28;20017;-71
2021/12/22 00:51:04;;;;;;;35.08;12.90;;;;;;;-0.18;100.00;102325.22;5020446;28;20116;-70
2021/12/22 00:53:29;;;;;;;28.30;12.75;;;;;;;-0.47;100.00;102310.13;5037618;28;20116;-72
2021/12/22 00:55:56;;;;;;;34.65;13.65;;;;;;;-0.17;100.00;102321.72;5050684;28;20017;-70
2021/12/22 00:58:21;;;;;;;35.50;12.98;;;;;;;-0.11;100.00;102326.81;5054551;28;20021;-70
2021/12/22 01:00:51;;;;;;;28.35;11.68;;;;;;;-0.23;100.00;102311.44;5053506;28;20490;-71
2021/12/22 01:03:18;;;;;;;30.20;12.43;;;;;;;-0.26;100.00;102319.28;5048550;28;20071;-71
2021/12/22 01:05:44;;;;;;;29.55;12.52;;;;;;;-0.27;100.00;102318.44;5050474;28;20138;-71
2021/12/22 01:08:09;;;;;;;31.02;12.15;;;;;;;-0.21;100.00;102331.28;5036600;28;20383;-72
2021/12/22 01:10:38;;;;;;;33.00;12.70;;;;;;;-0.24;100.00;102315.78;5034482;28;20055;-71
2021/12/22 01:13:06;;;;;;;27.02;11.90;;;;;;;-0.22;100.00;102314.00;5053418;28;20235;-71
2021/12/22 01:15:34;;;;;;;30.00;12.32;;;;;;;-0.23;100.00;102312.31;5029138;28;20056;-71
2021/12/22 01:18:10;;;;;;;34.33;12.82;;;;;;;-0.33;100.00;102289.13;5053711;28;20056;-69
2021/12/22 01:20:52;;;;;;;32.15;12.57;;;;;;;-0.15;100.00;102313.91;5053112;28;20474;-70
2021/12/22 01:23:20;;;;;;;31.50;11.45;;;;;;;-0.32;100.00;102319.38;5036845;28;20025;-71
2021/12/22 01:25:47;;;;;;;31.33;12.88;;;;;;;-0.25;100.00;102321.84;5034644;28;20466;-70
2021/12/22 01:28:14;;;;;;;28.23;12.15;;;;;;;-0.45;100.00;102326.53;5018015;28;20037;-71
2021/12/22 01:33:16;;;;;;;30.63;12.30;;;;;;;-0.68;100.00;102321.69;5036161;28;20041;-77
2021/12/22 01:35:48;;;;;;;28.42;12.23;;;;;;;-0.86;100.00;102341.84;5024168;28;20143;-75
2021/12/22 01:40:42;;;;;;;32.93;13.27;;;;;;;-0.37;100.00;102339.38;5082163;23;20411;-75
2021/12/22 01:43:09;;;;;;;34.53;12.95;;;;;;;-0.44;100.00;102331.69;5061467;28;20643;-75
2021/12/22 01:46:09;;;;;;;29.60;12.90;;;;;;;-0.68;100.00;102329.47;5052735;28;20035;-75
2021/12/22 01:51:36;;;;;;;31.73;12.00;;;;;;;-0.36;100.00;102320.31;5058987;28;20043;-76
2021/12/22 01:54:37;;;;;;;33.95;12.52;;;;;;;-1.01;100.00;102227.13;5053212;28;20021;-76
2021/12/22 01:57:08;;;;;;;32.55;12.60;;;;;;;-0.48;100.00;102293.72;5056824;28;20030;-75
2021/12/22 01:59:39;;;;;;;33.20;12.20;;;;;;;-0.33;100.00;102323.72;5039201;28;20021;-75
2021/12/22 02:02:08;;;;;;;28.73;12.02;;;;;;;-0.67;100.00;102262.00;5041936;28;20029;-76
2021/12/22 02:04:35;;;;;;;26.05;11.80;;;;;;;-0.70;100.00;102248.25;5076021;28;20013;-76
2021/12/22 02:07:01;;;;;;;31.67;12.70;;;;;;;-0.62;100.00;102274.91;5041339;28;20017;-75
2021/12/22 02:11:58;;;;;;;30.55;12.43;;;;;;;-1.27;100.00;102182.59;5074295;28;20021;-77
2021/12/22 02:14:24;;;;;;;30.55;12.77;;;;;;;-1.09;100.00;102203.91;5059067;28;20065;-76
2021/12/22 02:16:49;;;;;;;34.20;13.20;;;;;;;-1.00;100.00;102260.81;5060544;28;20187;-76
2021/12/22 02:19:15;;;;;;;29.67;12.80;;;;;;;-1.23;100.00;102178.19;5056229;28;20025;-76
2021/12/22 02:21:46;;;;;;;32.78;13.07;;;;;;;-0.97;100.00;102234.00;5060172;28;20097;-76
2021/12/22 02:24:13;;;;;;;34.63;13.88;;;;;;;-0.40;100.00;102331.66;5055208;28;20017;-75
2021/12/22 02:26:48;;;;;;;32.47;13.07;;;;;;;-0.76;100.00;102267.34;5061665;28;20473;-76
2021/12/22 02:29:23;;;;;;;38.10;13.35;;;;;;;-1.47;100.00;102195.84;5063303;28;20045;-75
2021/12/22 02:32:00;;;;;;;30.30;13.52;;;;;;;-0.44;100.00;102339.47;5041518;28;20055;-76
2021/12/22 02:34:25;;;;;;;31.27;13.10;;;;;;;-0.90;100.00;102275.34;5056611;28;20393;-75
2021/12/22 02:36:51;;;;;;;30.95;12.80;;;;;;;-0.89;100.00;102271.00;5033271;28;20020;-75
2021/12/22 02:39:25;;;;;;;29.95;12.25;;;;;;;-1.54;100.00;102152.78;5083096;28;20093;-75
2021/12/22 02:41:50;;;;;;;30.98;12.55;;;;;;;-0.85;100.00;102276.13;5037625;28;20045;-76
2021/12/22 02:44:16;;;;;;;27.05;12.07;;;;;;;-1.26;100.00;102201.59;5031137;28;20037;-76
2021/12/22 02:46:42;;;;;;;28.45;12.27;;;;;;;-0.52;100.00;102330.97;5079301;28;20037;-75
2021/12/22 02:49:12;;;;;;;30.42;11.77;;;;;;;-0.55;100.00;102314.56;5066286;28;20020;-75
2021/12/22 02:51:38;;;;;;;35.10;12.63;;;;;;;-0.79;100.00;102276.94;5082696;28;20565;-75
2021/12/22 02:54:18;;;;;;;27.95;12.88;;;;;;;-0.43;100.00;102323.03;5088735;28;20023;-76
2021/12/22 02:59:35;;;;;;;26.88;11.45;;;;;;;-0.88;100.00;102277.91;5080790;28;20020;-76
2021/12/22 03:04:33;;;;;;;28.63;12.38;;;;;;;-0.74;100.00;102321.81;5086194;28;20489;-76
2021/12/22 03:07:06;;;;;;;30.08;12.88;;;;;;;-0.71;100.00;102303.59;5058194;28;20020;-77
2021/12/22 03:09:34;;;;;;;26.60;12.00;;;;;;;-0.62;100.00;102316.41;5041857;28;20546;-75
2021/12/22 03:12:04;;;;;;;26.30;11.98;;;;;;;-0.54;100.00;102303.31;5060304;28;20020;-76
2021/12/22 03:14:30;;;;;;;32.58;12.30;;;;;;;-0.52;100.00;102323.19;5063907;28;20021;-75
2021/12/22 03:16:57;;;;;;;31.67;11.75;;;;;;;-1.08;100.00;102245.38;5069073;28;20365;-76
2021/12/22 03:19:29;;;;;;;28.48;11.65;;;;;;;-0.51;100.00;102311.91;5041613;28;20021;-75
2021/12/22 03:22:03;;;;;;;27.77;11.68;;;;;;;-0.89;100.00;102245.91;5041216;28;20028;-77
2021/12/22 03:24:31;;;;;;;28.08;11.93;;;;;;;-0.69;100.00;102287.09;5078574;28;20021;-76
2021/12/22 03:27:02;;;;;;;28.77;11.55;;;;;;;-0.90;100.00;102233.00;5079920;28;20020;-74
2021/12/22 03:29:28;;;;;;;29.02;12.38;;;;;;;-0.38;100.00;102306.53;5083393;28;20075;-75
2021/12/22 03:31:54;;;;;;;27.52;11.43;;;;;;;-0.97;100.00;102237.44;5056845;28;20026;-75
2021/12/22 03:34:19;;;;;;;28.58;11.90;;;;;;;-1.13;100.00;102200.50;5087489;28;20096;-75
2021/12/22 03:36:46;;;;;;;34.15;12.57;;;;;;;-0.52;100.00;102298.94;5065891;28;20082;-76
2021/12/22 03:39:17;;;;;;;25.80;11.18;;;;;;;-0.52;100.00;102296.34;5044319;28;20036;-75
2021/12/22 03:41:45;;;;;;;23.98;12.10;;;;;;;-0.58;100.00;102258.41;5043430;28;20041;-75
2021/12/22 03:44:11;;;;;;;27.50;11.88;;;;;;;-0.88;100.00;102234.69;5085464;28;20016;-76
2021/12/22 03:46:37;;;;;;;25.63;12.32;;;;;;;-0.53;100.00;102287.72;5065497;28;20059;-76
2021/12/22 03:49:06;;;;;;;27.20;11.65;;;;;;;-0.56;100.00;102284.34;5085160;28;20033;-75
2021/12/22 03:51:32;;;;;;;28.13;11.90;;;;;;;-0.59;100.00;102258.41;5039264;28;20121;-76
2021/12/22 03:53:57;;;;;;;24.35;10.55;;;;;;;-1.51;100.00;102138.91;5044257;28;20410;-76
2021/12/22 03:56:23;;;;;;;28.92;11.15;;;;;;;-0.55;100.00;102289.47;5063574;28;20035;-74
2021/12/22 03:58:49;;;;;;;26.48;11.73;;;;;;;-0.62;100.00;102293.06;5042899;28;20024;-76
2021/12/22 04:01:15;;;;;;;27.83;12.32;;;;;;;-0.55;100.00;102292.06;5074291;28;20021;-76
2021/12/22 04:03:43;;;;;;;24.77;11.13;;;;;;;-0.59;100.00;102297.34;5063678;28;20020;-76
2021/12/22 04:06:09;;;;;;;28.05;12.10;;;;;;;-0.74;100.00;102263.00;5060347;28;20099;-76
2021/12/22 04:08:35;;;;;;;29.13;12.45;;;;;;;-0.73;100.00;102249.13;5060494;28;20056;-75
2021/12/22 04:11:01;;;;;;;28.65;12.55;;;;;;;-0.69;100.00;102281.06;5043340;28;20040;-76
2021/12/22 04:13:26;;;;;;;28.88;11.43;;;;;;;-0.53;100.00;102279.09;5066407;28;20020;-74
2021/12/22 04:15:52;;;;;;;31.08;12.30;;;;;;;-1.35;100.00;102183.59;5079526;28;20032;-76
2021/12/22 04:18:19;;;;;;;32.67;12.50;;;;;;;-1.05;100.00;102236.69;5042899;28;20020;-75
2021/12/22 04:20:44;;;;;;;25.88;11.95;;;;;;;-0.66;100.00;102263.72;5079556;28;20034;-75
2021/12/22 04:23:10;;;;;;;25.75;11.95;;;;;;;-0.94;100.00;102233.94;5079195;28;20072;-75
2021/12/22 04:25:36;;;;;;;27.33;11.55;;;;;;;-0.84;100.00;102256.25;5055126;28;20020;-75
2021/12/22 04:28:08;;;;;;;26.27;11.07;;;;;;;-1.33;100.00;102163.69;5059990;28;20025;-76
2021/12/22 04:30:48;;;;;;;28.73;11.55;;;;;;;-1.07;100.00;102204.72;5082293;28;20052;-75
2021/12/22 04:33:14;;;;;;;50.85;18.92;;;;;;;-0.59;100.00;102284.38;5049752;28;20027;-76
2021/12/22 04:35:40;;;;;;;29.58;11.93;;;;;;;-1.76;100.00;102104.75;5058529;28;20044;-75
2021/12/22 04:38:06;;;;;;;26.75;11.25;;;;;;;-1.72;100.00;102080.53;5058187;28;20028;-76
2021/12/22 04:40:32;;;;;;;32.55;12.20;;;;;;;-1.66;100.00;102082.16;5043062;28;20040;-76
2021/12/22 04:42:57;;;;;;;25.67;11.10;;;;;;;-0.73;100.00;102241.34;5042469;28;20067;-76
2021/12/22 04:45:24;;;;;;;26.42;11.32;;;;;;;-1.87;100.00;102076.41;5063273;28;20036;-75
2021/12/22 04:47:51;;;;;;;34.13;13.77;;;;;;;-1.31;100.00;102156.75;5085511;28;20060;-74
2021/12/22 04:50:20;;;;;;;29.15;11.27;;;;;;;-0.94;100.00;102259.84;5060448;28;20063;-75
2021/12/22 04:55:17;;;;;;;23.10;10.68;;;;;;;-1.13;100.00;102199.66;5058936;28;20021;-75
2021/12/22 04:57:43;;;;;;;29.65;11.38;;;;;;;-0.79;100.00;102251.00;5064968;28;20374;-75
2021/12/22 05:00:14;;;;;;;32.17;14.18;;;;;;;-1.59;100.00;102203.78;5076020;28;20013;-75
2021/12/22 05:02:39;;;;;;;27.30;11.20;;;;;;;-1.59;100.00;102140.75;5054737;28;20031;-75
2021/12/22 05:05:06;;;;;;;30.02;11.73;;;;;;;-1.12;100.00;102224.69;5082329;28;20024;-76
2021/12/22 05:07:32;;;;;;;26.95;10.82;;;;;;;-1.49;100.00;102150.97;5044698;28;20377;-75
2021/12/22 05:09:57;;;;;;;38.85;15.48;;;;;;;-0.93;100.00;102251.19;5040283;28;20112;-75
2021/12/22 05:12:23;;;;;;;29.70;11.50;;;;;;;-0.95;100.00;102246.03;5065157;28;20103;-75
2021/12/22 05:14:50;;;;;;;23.27;10.85;;;;;;;-0.86;100.00;102240.72;5040486;28;20052;-75
2021/12/22 05:17:22;;;;;;;27.42;12.02;;;;;;;-0.71;100.00;102238.72;5056588;28;20024;-75
2021/12/22 05:19:48;;;;;;;24.35;10.75;;;;;;;-1.24;100.00;102173.06;5059335;28;20025;-75
2021/12/22 05:22:14;;;;;;;24.27;10.77;;;;;;;-0.79;100.00;102225.06;5043233;28;20021;-75
2021/12/22 05:24:40;;;;;;;25.23;10.15;;;;;;;-1.24;100.00;102202.41;5050352;28;20020;-75
2021/12/22 05:27:08;;;;;;;25.60;10.93;;;;;;;-1.67;100.00;102163.34;5082213;28;20024;-76
2021/12/22 05:29:41;;;;;;;25.65;10.65;;;;;;;-1.13;100.00;102252.38;5045833;28;20103;-75
2021/12/22 05:32:11;;;;;;;27.52;10.90;;;;;;;-2.09;100.00;102143.16;5062271;28;20158;-75
2021/12/22 05:34:39;;;;;;;27.15;11.10;;;;;;;-1.67;100.00;102163.34;5075205;28;20111;-75
2021/12/22 05:37:05;;;;;;;24.23;11.23;;;;;;;-1.23;100.00;102211.03;5056993;28;20065;-76
2021/12/22 05:39:31;;;;;;;24.38;10.60;;;;;;;-1.27;100.00;102234.41;5075213;28;20132;-75
2021/12/22 05:41:59;;;;;;;25.75;10.82;;;;;;;-1.62;100.00;102200.38;5048082;28;20494;-76
2021/12/22 05:44:25;;;;;;;28.65;10.50;;;;;;;-1.49;100.00;102191.56;5085271;28;20039;-75
2021/12/22 05:46:51;;;;;;;25.80;11.38;;;;;;;-1.15;100.00;102238.56;5046703;28;20021;-75
2021/12/22 05:49:17;;;;;;;24.48;10.40;;;;;;;-1.17;100.00;102242.91;5060700;28;20013;-76
2021/12/22 05:51:43;;;;;;;22.13;9.63;;;;;;;-1.66;100.00;102181.41;5037252;28;20050;-75
2021/12/22 05:54:18;;;;;;;28.95;11.07;;;;;;;-1.37;100.00;102188.78;5066353;28;20024;-76
2021/12/22 05:56:43;;;;;;;25.17;9.98;;;;;;;-1.19;100.00;102230.84;5079286;28;20086;-75
2021/12/22 05:59:09;;;;;;;29.35;11.20;;;;;;;-1.45;100.00;102197.53;5054651;28;20111;-76
2021/12/22 06:01:35;;;;;;;24.63;11.07;;;;;;;-1.28;100.00;102227.50;5046733;28;20514;-75
2021/12/22 06:04:03;;;;;;;23.38;10.02;;;;;;;-1.43;100.00;102162.09;5061934;28;20084;-81
2021/12/22 06:06:30;;;;;;;26.75;11.15;;;;;;;-1.43;100.00;102183.72;5047684;28;20021;-75
2021/12/22 06:08:56;;;;;;;25.95;10.68;;;;;;;-1.71;100.00;102155.59;5050023;28;20024;-78
2021/12/22 06:11:42;;;;;;;30.20;10.02;;;;;;;-1.47;100.00;102234.69;5057215;28;20024;-81
2021/12/22 06:14:10;;;;;;;28.88;10.85;;;;;;;-1.45;100.00;102247.66;5067279;28;20048;-81
2021/12/22 06:16:35;;;;;;;35.58;12.98;;;;;;;-1.36;100.00;102233.69;5075079;28;20041;-80
2021/12/22 06:19:04;;;;;;;24.83;11.25;;;;;;;-1.96;100.00;102230.13;5056224;28;20040;-78
2021/12/22 06:21:31;;;;;;;27.13;11.23;;;;;;;-2.81;100.00;102036.25;5061042;28;20059;-79
2021/12/22 06:23:57;;;;;;;30.30;10.00;;;;;;;-1.66;100.00;102246.16;5073037;28;20039;-78
2021/12/22 06:26:26;;;;;;;31.50;11.68;;;;;;;-2.28;100.00;102127.00;5083735;28;20022;-78
2021/12/22 06:28:53;;;;;;;28.10;11.30;;;;;;;-1.91;100.00;102241.31;5069271;28;20024;-78
2021/12/22 06:31:22;;;;;;;33.00;12.73;;;;;;;-1.79;100.00;102218.75;5069570;28;20363;-78
2021/12/22 06:33:48;;;;;;;26.90;11.60;;;;;;;-2.24;100.00;102182.19;5061823;28;20046;-83
2021/12/22 06:36:14;;;;;;;26.35;11.40;;;;;;;-1.76;100.00;102213.50;5074720;28;20032;-77
2021/12/22 06:38:41;;;;;;;30.90;11.90;;;;;;;-2.16;100.00;102196.75;5057527;28;20031;-78
2021/12/22 06:41:15;;;;;;;28.27;10.82;;;;;;;-2.42;100.00;102113.38;5057796;28;20079;-79
2021/12/22 06:43:41;;;;;;;29.58;11.35;;;;;;;-2.27;100.00;102109.75;5061096;28;20033;-78
2021/12/22 06:46:12;;;;;;;25.38;11.20;;;;;;;-1.65;100.00;102215.97;5074547;28;20035;-79
2021/12/22 06:48:41;;;;;;;;;;;;;;;-1.56;100.00;102215.84;5037433;28;20031;-78
2021/12/22 06:51:07;;;;;;;32.47;12.23;;;;;;;-1.64;100.00;102226.28;5073271;28;19921;-83
2021/12/22 06:53:36;;;;;;;28.05;11.80;;;;;;;-1.84;100.00;102247.28;5044883;28;20021;-79
2021/12/22 06:56:04;;;;;;;30.48;12.15;;;;;;;-2.35;100.00;102164.19;5063800;28;20044;-81
2021/12/22 06:58:34;;;;;;;29.90;12.48;;;;;;;-2.74;100.00;102045.66;5030666;28;20064;-83
2021/12/22 07:01:01;;;;;;;29.70;12.02;;;;;;;-1.77;100.00;102228.19;5061455;28;20547;-77
2021/12/22 07:03:27;;;;;;;33.95;13.18;;;;;;;-2.00;100.00;102225.91;5043698;28;20045;-79
2021/12/22 07:05:53;;;;;;;35.55;12.15;;;;;;;-2.19;100.00;102154.50;5058172;28;20062;-78
2021/12/22 07:08:21;;;;;;;30.50;12.55;;;;;;;-2.76;100.00;102162.88;5041672;28;20033;-77
2021/12/22 07:10:49;;;;;;;51.38;20.00;;;;;;;-2.45;100.00;102228.09;5050221;28;20063;-78
2021/12/22 07:13:17;;;;;;;31.55;13.30;;;;;;;-2.01;100.00;102244.03;5043183;28;20052;-76
2021/12/22 07:15:45;;;;;;;32.83;12.65;;;;;;;-2.44;100.00;102152.19;5040131;28;20087;-76
2021/12/22 07:18:15;;;;;;;40.28;13.55;;;;;;;-2.24;100.00;102216.66;5058451;28;20032;-77
2021/12/22 07:20:41;;;;;;;38.53;13.60;;;;;;;-2.76;100.00;102127.53;5045920;28;20477;-79
2021/12/22 07:23:08;;;;;;;29.98;12.82;;;;;;;-2.71;100.00;102155.94;5031211;28;20040;-77
2021/12/22 07:25:37;;;;;;;26.70;11.98;;;;;;;-2.04;100.00;102216.44;5025219;28;20103;-75
2021/12/22 07:28:09;;;;;;;30.63;13.60;;;;;;;-2.62;100.00;102201.53;5044597;28;20406;-74
2021/12/22 07:30:35;;;;;;;33.70;13.27;;;;;;;-2.63;100.00;102130.88;5018358;28;20017;-76
2021/12/22 07:33:03;;;;;;;36.25;14.85;;;;;;;-2.40;100.00;102197.88;5063584;28;20066;-75
2021/12/22 07:35:41;;;;;;;34.22;13.07;;;;;;;-1.97;100.00;102197.38;5080458;28;20047;-76
2021/12/22 07:38:11;;;;;;;27.30;11.63;;;;;;;-2.57;100.00;102066.13;5039133;28;20027;-79
2021/12/22 07:40:37;;;;;;;31.38;12.40;;;;;;;-1.86;100.00;102191.19;5056241;28;20047;-78
2021/12/22 07:43:04;;;;;;;26.88;11.20;;;;;;;-2.89;100.00;102089.75;5078686;28;20025;-77
2021/12/22 07:45:32;;;;;;;48.20;19.23;;;;;;;-3.37;100.00;102110.88;5060684;28;20044;-77
2021/12/22 07:48:58;;;;;;;;;;;;;;;;;;;;;
2021/12/22 07:51:45;;;;;;;32.42;12.70;;;;;;;-3.66;100.00;102006.97;4996982;28;20121;-80
2021/12/22 07:54:13;;;;;;;32.28;12.98;;;;;;;-2.65;100.00;102100.72;4998420;28;20031;-79
2021/12/22 08:00:06;;;;;;;30.88;12.70;;;;;;;-3.93;100.00;102020.94;4978958;28;20145;-85
2021/12/22 08:02:41;;;;;;;29.20;12.48;;;;;;;-2.79;100.00;102212.06;4989168;28;20030;-79
2021/12/22 08:05:07;;;;;;;32.42;13.27;;;;;;;-3.51;100.00;102042.97;4975577;28;20041;-76
2021/12/22 08:07:43;;;;;;;31.50;12.95;;;;;;;-2.85;100.00;102220.69;4976055;28;20043;-79
2021/12/22 08:10:09;;;;;;;31.58;12.18;;;;;;;-2.96;100.00;102101.03;4978478;28;20046;-79
2021/12/22 08:12:35;;;;;;;32.00;13.27;;;;;;;-3.03;100.00;102153.66;4975271;28;20030;-78
2021/12/22 08:15:01;;;;;;;31.30;12.70;;;;;;;-2.14;100.00;102222.59;4962669;28;20044;-78
2021/12/22 08:17:28;;;;;;;34.75;13.00;;;;;;;-1.90;100.00;102205.94;4968812;28;20055;-76
2021/12/22 08:19:57;;;;;;;30.38;12.93;;;;;;;-2.31;100.00;102140.00;5007059;28;20018;-77
2021/12/22 08:22:23;;;;;;;33.60;13.05;;;;;;;-2.23;100.00;102195.06;5014585;28;20062;-76
2021/12/22 08:24:50;;;;;;;31.75;13.32;;;;;;;-2.05;100.00;102206.94;5007364;28;20063;-77
2021/12/22 08:27:17;;;;;;;32.72;13.18;;;;;;;-1.93;100.00;102199.06;5009602;28;20047;-76
2021/12/22 08:29:44;;;;;;;33.47;13.60;;;;;;;-1.96;100.00;102208.56;5039088;28;20495;-77
2021/12/22 08:32:12;;;;;;;34.40;12.75;;;;;;;-2.39;100.00;102127.13;5024313;28;20056;-79
2021/12/22 08:34:41;;;;;;;36.15;15.52;;;;;;;-1.94;100.00;102196.47;5038234;23;20053;-76
2021/12/22 08:39:57;;;;;;;34.33;13.85;;;;;;;-2.33;100.00;102162.44;5031960;28;20044;-77
2021/12/22 08:42:24;;;;;;;35.53;12.57;;;;;;;-2.20;100.00;102184.72;5041022;28;20039;-75
2021/12/22 08:44:52;;;;;;;31.90;12.77;;;;;;;-3.26;100.00;102037.59;5037539;28;20025;-75
2021/12/22 08:47:19;;;;;;;63.10;25.55;;;;;;;-2.15;100.00;102193.28;5055767;28;20470;-79
2021/12/22 08:49:45;;;;;;;35.05;13.77;;;;;;;-2.06;100.00;102121.56;5056606;28;20031;-75
2021/12/22 08:52:11;;;;;;;31.45;13.02;;;;;;;-3.30;100.00;101989.41;5040433;28;20021;-76
2021/12/22 08:55:00;;;;;;;28.60;11.82;;;;;;;-2.34;100.00;102208.16;5018129;28;20029;-75
2021/12/22 08:57:28;;;;;;;37.00;13.93;;;;;;;-2.31;100.00;102210.69;5050077;28;20552;-77
2021/12/22 08:59:54;;;;;;;33.40;12.98;;;;;;;-2.58;100.00;102226.50;5008337;28;20030;-74
2021/12/22 09:02:20;;;;;;;31.17;12.80;;;;;;;-2.32;100.00;102167.59;5051593;28;20029;-74
2021/12/22 09:04:46;;;;;;;30.08;12.48;;;;;;;-2.47;100.00;102079.81;5056524;28;20036;-74
2021/12/22 09:07:12;;;;;;;32.88;12.45;;;;;;;-1.60;100.00;102194.28;5054120;28;20374;-74
2021/12/22 09:09:38;;;;;;;33.45;12.82;;;;;;;-1.38;100.00;102212.13;5039220;28;20031;-75
2021/12/22 09:12:08;;;;;;;29.05;13.30;;;;;;;-1.60;100.00;102215.00;5059536;28;20111;-72
2021/12/22 09:14:34;;;;;;;29.55;12.00;;;;;;;-1.34;100.00;102211.19;5046090;28;20028;-74
2021/12/22 09:17:00;;;;;;;31.00;12.45;;;;;;;-1.36;100.00;102205.16;5040465;28;20017;-75
2021/12/22 09:19:25;;;;;;;33.55;13.25;;;;;;;-2.62;100.00;102127.38;5034252;28;20035;-75
2021/12/22 09:21:51;;;;;;;31.45;13.05;;;;;;;-2.64;100.00;102081.75;5052925;28;20029;-75
2021/12/22 09:24:18;;;;;;;32.80;12.60;;;;;;;-1.17;100.00;102221.31;5018576;28;20112;-74
2021/12/22 09:26:44;;;;;;;34.00;12.88;;;;;;;-2.63;100.00;102076.56;5053206;28;20033;-75
2021/12/22 09:29:10;;;;;;;31.35;13.75;;;;;;;-1.92;100.00;102128.25;5028690;28;20051;-76
2021/12/22 09:31:36;;;;;;;31.92;13.15;;;;;;;-1.09;100.00;102185.75;5058266;28;20098;-75
2021/12/22 09:34:03;;;;;;;38.33;13.73;;;;;;;-2.25;100.00;102079.53;5029764;28;20413;-75
2021/12/22 09:36:29;;;;;;;68.32;24.80;;;;;;;-2.22;100.00;102102.81;5074690;28;20047;-79
2021/12/22 09:38:55;;;;;;;33.05;13.25;;;;;;;-1.43;100.00;102160.38;5058661;28;20036;-76
2021/12/22 09:41:20;;;;;;;35.88;13.23;;;;;;;-1.61;100.00;102114.88;5037466;28;20017;-75
2021/12/22 09:43:47;;;;;;;32.75;13.05;;;;;;;-1.03;100.00;102192.59;5038391;28;20111;-75
2021/12/22 09:46:17;;;;;;;31.58;13.05;;;;;;;-1.00;100.00;102206.38;5058755;28;20347;-74
2021/12/22 09:53:47;;;;;;;27.65;12.68;;;;;;;-1.10;100.00;102158.97;5046448;28;20024;-75
2021/12/22 09:56:27;;;;;;;30.52;12.57;;;;;;;-0.97;100.00;102198.53;5079726;28;20046;-77
2021/12/22 09:58:54;;;;;;;30.15;12.77;;;;;;;-1.00;100.00;102188.22;5037128;28;20143;-75
2021/12/22 10:01:25;;;;;;;31.85;13.32;;;;;;;-1.23;100.00;102191.16;5042591;28;20033;-76
2021/12/22 10:03:57;;;;;;;34.33;13.07;;;;;;;-1.08;100.00;102188.31;5059160;28;20021;-75
2021/12/22 10:06:22;;;;;;;39.53;13.65;;;;;;;-1.41;100.00;102096.41;5069050;28;20056;-76
2021/12/22 10:08:59;;;;;;;26.73;12.27;;;;;;;-1.15;100.00;102103.78;5050259;28;20021;-75
2021/12/22 10:11:25;;;;;;;34.88;14.13;;;;;;;-0.95;100.00;102116.38;5074328;28;20540;-76
2021/12/22 10:13:51;;;;;;;30.13;12.15;;;;;;;-0.86;100.00;102136.13;5056681;28;20017;-74
2021/12/22 10:16:23;;;;;;;31.08;13.32;;;;;;;-0.86;100.00;102194.03;5043768;28;20075;-77
2021/12/22 10:19:10;;;;;;;31.70;13.65;;;;;;;-1.09;100.00;102158.13;5077749;28;20074;-74
2021/12/22 10:21:53;;;;;;;32.75;12.73;;;;;;;-0.38;100.00;102181.94;5046027;28;20047;-75
2021/12/22 10:24:33;;;;;;;30.48;13.00;;;;;;;-0.18;100.00;102192.78;5077645;28;20025;-77
2021/12/22 10:27:10;;;;;;;31.33;12.52;;;;;;;-0.03;100.00;102186.41;5057887;28;20091;-77
2021/12/22 10:29:48;;;;;;;29.92;12.95;;;;;;;-2.11;100.00;101961.19;5063928;28;20104;-76
2021/12/22 10:32:16;;;;;;;31.63;13.35;;;;;;;-0.95;100.00;102110.34;5058507;28;20036;-77
2021/12/22 10:34:57;;;;;;;30.55;13.48;;;;;;;-0.66;100.00;102178.13;5077785;28;20052;-74
2021/12/22 10:37:42;;;;;;;31.15;13.45;;;;;;;-0.88;100.00;102122.31;5070286;28;20037;-74
2021/12/22 10:40:43;;;;;;;34.00;12.38;;;;;;;-0.87;100.00;102204.41;5052770;28;20025;-75
2021/12/22 10:43:21;;;;;;;31.63;12.88;;;;;;;-1.15;100.00;102077.00;5049467;28;20020;-76
2021/12/22 10:45:50;;;;;;;30.35;12.07;;;;;;;-0.37;100.00;102168.06;5052004;28;20055;-76
2021/12/22 10:51:10;;;;;;;27.98;12.48;;;;;;;-1.30;100.00;101998.63;5064736;28;20469;-76
2021/12/22 10:53:45;;;;;;;34.78;13.55;;;;;;;-0.49;100.00;102167.41;5056835;28;20054;-76
2021/12/22 10:56:22;;;;;;;26.92;12.38;;;;;;;-0.37;100.00;102163.72;5027153;28;20029;-78
2021/12/22 10:59:03;;;;;;;29.88;13.40;;;;;;;-0.42;100.00;102101.53;5024029;28;20082;-79
2021/12/22 11:01:34;;;;;;;27.88;12.35;;;;;;;-0.75;100.00;101991.53;5023474;28;20028;-77
2021/12/22 11:04:03;;;;;;;30.20;12.75;;;;;;;-0.04;100.00;102109.41;5048551;28;20031;-78
2021/12/22 11:06:33;;;;;;;31.52;13.35;;;;;;;-0.73;100.00;102096.06;5057939;28;20101;-78
2021/12/22 11:09:16;;;;;;;58.10;22.80;;;;;;;-0.04;100.00;102062.69;5056938;28;20034;-77
2021/12/22 11:11:48;;;;;;;28.35;12.93;;;;;;;0.17;100.00;102108.09;5071018;28;20083;-74
2021/12/22 11:14:22;;;;;;;25.73;12.32;;;;;;;0.51;100.00;102099.50;5040266;28;20078;-76
2021/12/22 11:17:00;;;;;;;35.42;13.23;;;;;;;0.82;100.00;102134.25;5056246;28;20025;-76
2021/12/22 11:19:34;;;;;;;28.83;12.77;;;;;;;0.46;100.00;102137.75;5061012;28;20031;-75
2021/12/22 11:22:15;;;;;;;;;;;;;;;0.41;100.00;102138.72;5058032;28;20031;-76
2021/12/22 11:24:54;;;;;;;28.73;11.90;;;;;;;1.19;100.00;102065.66;5061406;28;19919;-76
2021/12/22 11:27:23;;;;;;;23.75;11.10;;;;;;;1.74;100.00;102037.19;5060180;28;20029;-75
2021/12/22 11:29:54;;;;;;;28.73;11.77;;;;;;;2.71;100.00;102143.63;5083801;28;20462;-77
2021/12/22 11:32:39;;;;;;;26.23;11.35;;;;;;;2.12;100.00;102115.09;5079963;28;20021;-75
2021/12/22 11:35:07;;;;;;;33.25;11.43;;;;;;;1.46;100.00;102038.00;5085683;28;20038;-76
2021/12/22 11:37:33;;;;;;;25.45;10.85;;;;;;;1.92;100.00;101991.50;5089888;28;20028;-74
2021/12/22 11:40:00;;;;;;;25.80;10.80;;;;;;;0.89;100.00;101986.72;5055026;28;20051;-75
2021/12/22 11:42:43;;;;;;;24.23;10.68;;;;;;;1.44;100.00;102063.22;5075979;28;20040;-74
2021/12/22 11:45:12;;;;;;;28.88;11.73;;;;;;;0.66;100.00;102098.25;5073472;28;20032;-76
2021/12/22 11:47:48;;;;;;;29.60;12.32;;;;;;;1.08;100.00;102098.06;5059136;28;20024;-79